sensor_id;sensor_type;location;lat;lon;timestamp;P1;durP1;ratioP1;P2;durP2;ratioP2
26177;SDS011;13924;47.670;10.310;2024-03-07T00:00:37;32.6;;;18.1;;
26177;SDS011;13924;47.670;10.310;2024-03-07T00:15:36;31.2;;;18.1;;
26177;SDS011;13924;47.670;10.310;2024-03-07T00:30:37;26.4;;;18.6;;
26177;SDS011;13924;47.670;10.310;2024-03-07T00:45:39;24.3;;;16.9;;
26177;SDS011;13924;47.670;10.310;2024-03-07T01:00:39;17.6;;;12.9;;
26177;SDS011;13924;47.670;10.310;2024-03-07T01:15:40;23.1;;;15.2;;
26177;SDS011;13924;47.670;10.310;2024-03-07T01:30:41;25.4;;;15.9;;
26177;SDS011;13924;47.670;10.310;2024-03-07T01:45:41;34.0;;;18.8;;
26177;SDS011;13924;47.670;10.310;2024-03-07T02:00:41;29.6;;;17.3;;
26177;SDS011;13924;47.670;10.310;2024-03-07T02:01:26;34.4;;;19.3;;
26177;SDS011;13924;47.670;10.310;2024-03-07T02:15:42;34.9;;;19.6;;
26177;SDS011;13924;47.670;10.310;2024-03-07T02:30:42;31.5;;;18.2;;
26177;SDS011;13924;47.670;10.310;2024-03-07T02:45:44;31.2;;;17.4;;
26177;SDS011;13924;47.670;10.310;2024-03-07T03:00:44;31.5;;;18.2;;
26177;SDS011;13924;47.670;10.310;2024-03-07T03:15:45;28.9;;;17.4;;
26177;SDS011;13924;47.670;10.310;2024-03-07T03:30:46;30.0;;;17.8;;
26177;SDS011;13924;47.670;10.310;2024-03-07T03:45:46;32.7;;;18.2;;
26177;SDS011;13924;47.670;10.310;2024-03-07T04:00:47;36.3;;;19.8;;
26177;SDS011;13924;47.670;10.310;2024-03-07T04:15:47;34.4;;;18.3;;
26177;SDS011;13924;47.670;10.310;2024-03-07T04:30:48;36.4;;;19.2;;
26177;SDS011;13924;47.670;10.310;2024-03-07T04:45:49;38.0;;;20.3;;
26177;SDS011;13924;47.670;10.310;2024-03-07T05:00:49;50.4;;;23.4;;
26177;SDS011;13924;47.670;10.310;2024-03-07T05:15:51;53.9;;;25.2;;
26177;SDS011;13924;47.670;10.310;2024-03-07T05:30:50;81.9;;;31.3;;
26177;SDS011;13924;47.670;10.310;2024-03-07T05:45:52;76.8;;;23.4;;
26177;SDS011;13924;47.670;10.310;2024-03-07T05:53:05;63.1;;;19.8;;
26177;SDS011;13924;47.670;10.310;2024-03-07T06:08:09;55.3;;;19.2;;
26177;SDS011;13924;47.670;10.310;2024-03-07T06:23:06;51.3;;;19.7;;
26177;SDS011;13924;47.670;10.310;2024-03-07T06:38:06;46.4;;;20.2;;
26177;SDS011;13924;47.670;10.310;2024-03-07T06:53:07;75.8;;;25.2;;
26177;SDS011;13924;47.670;10.310;2024-03-07T07:08:10;74.7;;;23.2;;
26177;SDS011;13924;47.670;10.310;2024-03-07T07:23:08;91.9;;;27.3;;
26177;SDS011;13924;47.670;10.310;2024-03-07T07:38:09;81.7;;;19.6;;
26177;SDS011;13924;47.670;10.310;2024-03-07T07:53:09;87.6;;;22.3;;
26177;SDS011;13924;47.670;10.310;2024-03-07T08:08:10;81.8;;;21.9;;
26177;SDS011;13924;47.670;10.310;2024-03-07T08:23:12;89.2;;;24.1;;
26177;SDS011;13924;47.670;10.310;2024-03-07T08:38:12;91.6;;;24.1;;
26177;SDS011;13924;47.670;10.310;2024-03-07T08:53:13;85.4;;;23.8;;
26177;SDS011;13924;47.670;10.310;2024-03-07T09:08:12;94.1;;;25.1;;
26177;SDS011;13924;47.670;10.310;2024-03-07T09:23:13;82.7;;;25.3;;
26177;SDS011;13924;47.670;10.310;2024-03-07T09:38:14;96.1;;;27.3;;
26177;SDS011;13924;47.670;10.310;2024-03-07T09:53:16;96.2;;;27.6;;
26177;SDS011;13924;47.670;10.310;2024-03-07T10:08:16;72.6;;;24.6;;
26177;SDS011;13924;47.670;10.310;2024-03-07T10:23:18;70.4;;;24.0;;
26177;SDS011;13924;47.670;10.310;2024-03-07T10:38:17;71.0;;;26.1;;
26177;SDS011;13924;47.670;10.310;2024-03-07T10:53:19;70.5;;;25.3;;
26177;SDS011;13924;47.670;10.310;2024-03-07T11:08:18;83.9;;;32.3;;
26177;SDS011;13924;47.670;10.310;2024-03-07T11:23:24;66.4;;;26.8;;
26177;SDS011;13924;47.670;10.310;2024-03-07T11:38:20;73.8;;;27.4;;
26177;SDS011;13924;47.670;10.310;2024-03-07T11:53:20;85.5;;;30.8;;
26177;SDS011;13924;47.670;10.310;2024-03-07T12:08:19;77.8;;;30.7;;
26177;SDS011;13924;47.670;10.310;2024-03-07T12:23:22;76.6;;;29.0;;
26177;SDS011;13924;47.670;10.310;2024-03-07T12:38:27;66.5;;;25.3;;
26177;SDS011;13924;47.670;10.310;2024-03-07T12:53:22;60.4;;;25.4;;
26177;SDS011;13924;47.670;10.310;2024-03-07T13:08:23;55.5;;;24.0;;
26177;SDS011;13924;47.670;10.310;2024-03-07T13:23:23;55.4;;;23.0;;
26177;SDS011;13924;47.670;10.310;2024-03-07T13:38:27;60.3;;;25.1;;
26177;SDS011;13924;47.670;10.310;2024-03-07T13:53:25;61.4;;;25.4;;
26177;SDS011;13924;47.670;10.310;2024-03-07T14:08:39;63.5;;;27.3;;
26177;SDS011;13924;47.670;10.310;2024-03-07T14:23:33;63.4;;;28.2;;
26177;SDS011;13924;47.670;10.310;2024-03-07T14:38:28;64.3;;;27.6;;
26177;SDS011;13924;47.670;10.310;2024-03-07T14:53:27;61.4;;;27.8;;
26177;SDS011;13924;47.670;10.310;2024-03-07T15:08:27;69.3;;;31.7;;
26177;SDS011;13924;47.670;10.310;2024-03-07T15:23:28;57.2;;;26.8;;
26177;SDS011;13924;47.670;10.310;2024-03-07T15:38:30;55.0;;;27.0;;
26177;SDS011;13924;47.670;10.310;2024-03-07T15:53:32;52.0;;;25.2;;
26177;SDS011;13924;47.670;10.310;2024-03-07T16:08:31;56.3;;;26.6;;
26177;SDS011;13924;47.670;10.310;2024-03-07T16:23:35;59.9;;;27.9;;
26177;SDS011;13924;47.670;10.310;2024-03-07T16:38:31;60.8;;;29.2;;
26177;SDS011;13924;47.670;10.310;2024-03-07T16:53:33;59.9;;;27.9;;
26177;SDS011;13924;47.670;10.310;2024-03-07T17:08:33;69.5;;;30.3;;
26177;SDS011;13924;47.670;10.310;2024-03-07T17:23:34;70.3;;;31.0;;
26177;SDS011;13924;47.670;10.310;2024-03-07T17:38:35;70.6;;;30.2;;
26177;SDS011;13924;47.670;10.310;2024-03-07T17:53:37;69.6;;;31.4;;
26177;SDS011;13924;47.670;10.310;2024-03-07T18:08:36;76.7;;;33.7;;
26177;SDS011;13924;47.670;10.310;2024-03-07T18:23:37;82.7;;;33.7;;
26177;SDS011;13924;47.670;10.310;2024-03-07T18:38:38;77.0;;;31.9;;
26177;SDS011;13924;47.670;10.310;2024-03-07T18:53:41;75.6;;;33.0;;
26177;SDS011;13924;47.670;10.310;2024-03-07T19:08:40;77.5;;;31.9;;
26177;SDS011;13924;47.670;10.310;2024-03-07T19:23:40;78.0;;;34.8;;
26177;SDS011;13924;47.670;10.310;2024-03-07T19:38:42;84.6;;;36.7;;
26177;SDS011;13924;47.670;10.310;2024-03-07T19:53:42;77.4;;;35.1;;
26177;SDS011;13924;47.670;10.310;2024-03-07T20:08:43;78.4;;;34.6;;
26177;SDS011;13924;47.670;10.310;2024-03-07T20:23:43;82.2;;;35.2;;
26177;SDS011;13924;47.670;10.310;2024-03-07T20:38:45;95.2;;;37.5;;
26177;SDS011;13924;47.670;10.310;2024-03-07T20:53:44;73.6;;;33.0;;
26177;SDS011;13924;47.670;10.310;2024-03-07T21:08:46;71.2;;;30.8;;
26177;SDS011;13924;47.670;10.310;2024-03-07T21:23:45;66.6;;;29.1;;
26177;SDS011;13924;47.670;10.310;2024-03-07T21:38:46;63.7;;;29.8;;
26177;SDS011;13924;47.670;10.310;2024-03-07T21:53:47;69.5;;;29.9;;
26177;SDS011;13924;47.670;10.310;2024-03-07T22:08:46;65.7;;;29.2;;
26177;SDS011;13924;47.670;10.310;2024-03-07T22:23:47;79.5;;;32.2;;
26177;SDS011;13924;47.670;10.310;2024-03-07T22:38:49;51.1;;;25.8;;
26177;SDS011;13924;47.670;10.310;2024-03-07T22:53:49;60.9;;;27.0;;
26177;SDS011;13924;47.670;10.310;2024-03-07T23:00:37;59.0;;;27.8;;
26177;SDS011;13924;47.670;10.310;2024-03-07T23:15:37;52.2;;;26.5;;
26177;SDS011;13924;47.670;10.310;2024-03-07T23:30:38;52.2;;;25.8;;
26177;SDS011;13924;47.670;10.310;2024-03-07T23:45:38;57.3;;;26.6;;
